sensor_id;sensor_type;location;lat;lon;timestamp;pressure;altitude;pressure_sealevel;temperature;humidity
73594;BME280;64760;53.404;23.498;2023-05-19T00:01:12;100744.19;;;11.96;89.48
73594;BME280;64760;53.404;23.498;2023-05-19T00:03:49;100747.25;;;11.93;90.19
73594;BME280;64760;53.404;23.498;2023-05-19T00:06:21;100756.63;;;11.97;89.51
73594;BME280;64760;53.404;23.498;2023-05-19T00:09:04;100760.25;;;12.04;88.49
73594;BME280;64760;53.404;23.498;2023-05-19T00:11:39;100762.22;;;12.10;88.05
73594;BME280;64760;53.404;23.498;2023-05-19T00:14:07;100766.28;;;12.06;87.79
73594;BME280;64760;53.404;23.498;2023-05-19T00:16:36;100763.00;;;11.96;88.88
73594;BME280;64760;53.404;23.498;2023-05-19T00:19:07;100765.16;;;12.00;88.71
73594;BME280;64760;53.404;23.498;2023-05-19T00:21:35;100772.63;;;11.90;91.74
73594;BME280;64760;53.404;23.498;2023-05-19T00:24:04;100766.53;;;11.73;95.01
73594;BME280;64760;53.404;23.498;2023-05-19T00:26:30;100763.81;;;11.82;95.43
73594;BME280;64760;53.404;23.498;2023-05-19T00:29:03;100766.50;;;11.82;95.66
73594;BME280;64760;53.404;23.498;2023-05-19T00:31:30;100765.66;;;11.81;96.45
73594;BME280;64760;53.404;23.498;2023-05-19T00:33:56;100768.03;;;11.76;96.22
73594;BME280;64760;53.404;23.498;2023-05-19T00:36:24;100760.72;;;11.62;96.26
73594;BME280;64760;53.404;23.498;2023-05-19T00:38:51;100764.72;;;11.66;96.43
73594;BME280;64760;53.404;23.498;2023-05-19T00:41:17;100769.88;;;11.75;96.17
73594;BME280;64760;53.404;23.498;2023-05-19T00:43:44;100762.81;;;11.74;95.95
73594;BME280;64760;53.404;23.498;2023-05-19T00:46:10;100773.06;;;11.71;97.07
73594;BME280;64760;53.404;23.498;2023-05-19T00:48:37;100768.28;;;11.58;97.44
73594;BME280;64760;53.404;23.498;2023-05-19T00:51:04;100775.16;;;11.61;97.67
73594;BME280;64760;53.404;23.498;2023-05-19T00:53:32;100780.09;;;11.49;98.50
73594;BME280;64760;53.404;23.498;2023-05-19T00:55:59;100779.78;;;11.44;99.53
73594;BME280;64760;53.404;23.498;2023-05-19T00:58:29;100778.09;;;11.43;99.97
73594;BME280;64760;53.404;23.498;2023-05-19T01:00:57;100779.41;;;11.47;100.00
73594;BME280;64760;53.404;23.498;2023-05-19T01:03:33;100785.88;;;11.38;100.00
73594;BME280;64760;53.404;23.498;2023-05-19T01:06:01;100786.81;;;11.45;99.87
73594;BME280;64760;53.404;23.498;2023-05-19T01:08:34;100776.81;;;11.31;100.00
73594;BME280;64760;53.404;23.498;2023-05-19T01:11:03;100783.91;;;11.24;100.00
73594;BME280;64760;53.404;23.498;2023-05-19T01:13:30;100782.53;;;11.28;100.00
73594;BME280;64760;53.404;23.498;2023-05-19T01:18:39;100785.94;;;11.22;100.00
73594;BME280;64760;53.404;23.498;2023-05-19T01:21:54;100786.97;;;11.13;100.00
73594;BME280;64760;53.404;23.498;2023-05-19T01:30:26;100790.41;;;10.99;100.00
73594;BME280;64760;53.404;23.498;2023-05-19T01:32:57;100782.84;;;11.02;100.00
73594;BME280;64760;53.404;23.498;2023-05-19T01:35:24;100792.25;;;10.98;100.00
73594;BME280;64760;53.404;23.498;2023-05-19T01:37:54;100780.84;;;10.96;100.00
73594;BME280;64760;53.404;23.498;2023-05-19T01:40:22;100792.47;;;11.19;100.00
73594;BME280;64760;53.404;23.498;2023-05-19T01:42:52;100786.16;;;11.12;100.00
73594;BME280;64760;53.404;23.498;2023-05-19T01:45:20;100790.47;;;11.21;100.00
73594;BME280;64760;53.404;23.498;2023-05-19T01:47:53;100782.22;;;11.23;100.00
73594;BME280;64760;53.404;23.498;2023-05-19T01:50:20;100788.31;;;11.17;100.00
73594;BME280;64760;53.404;23.498;2023-05-19T01:52:46;100779.38;;;11.24;100.00
73594;BME280;64760;53.404;23.498;2023-05-19T01:55:13;100781.28;;;11.08;100.00
73594;BME280;64760;53.404;23.498;2023-05-19T02:02:54;100779.81;;;11.05;100.00
73594;BME280;64760;53.404;23.498;2023-05-19T02:08:33;100783.63;;;11.11;100.00
73594;BME280;64760;53.404;23.498;2023-05-19T02:11:07;100780.25;;;11.17;100.00
73594;BME280;64760;53.404;23.498;2023-05-19T02:13:42;100783.34;;;11.06;100.00
73594;BME280;64760;53.404;23.498;2023-05-19T02:16:09;100789.72;;;10.97;100.00
73594;BME280;64760;53.404;23.498;2023-05-19T02:18:39;100780.03;;;10.88;100.00
73594;BME280;64760;53.404;23.498;2023-05-19T02:21:11;100779.88;;;10.89;100.00
73594;BME280;64760;53.404;23.498;2023-05-19T02:23:40;100782.03;;;10.94;100.00
73594;BME280;64760;53.404;23.498;2023-05-19T02:26:07;100784.06;;;10.83;100.00
73594;BME280;64760;53.404;23.498;2023-05-19T02:28:34;100781.34;;;10.92;100.00
73594;BME280;64760;53.404;23.498;2023-05-19T02:31:02;100775.13;;;10.99;100.00
73594;BME280;64760;53.404;23.498;2023-05-19T02:33:29;100773.81;;;10.87;100.00
73594;BME280;64760;53.404;23.498;2023-05-19T02:35:56;100770.81;;;10.90;100.00
73594;BME280;64760;53.404;23.498;2023-05-19T02:38:22;100775.53;;;10.80;100.00
73594;BME280;64760;53.404;23.498;2023-05-19T02:40:50;100772.66;;;10.90;100.00
73594;BME280;64760;53.404;23.498;2023-05-19T02:43:17;100780.66;;;11.06;100.00
73594;BME280;64760;53.404;23.498;2023-05-19T02:45:44;100781.19;;;10.93;100.00
73594;BME280;64760;53.404;23.498;2023-05-19T02:48:10;100784.03;;;10.92;100.00
73594;BME280;64760;53.404;23.498;2023-05-19T02:50:36;100784.38;;;10.89;100.00
73594;BME280;64760;53.404;23.498;2023-05-19T02:53:04;100781.59;;;10.74;100.00
73594;BME280;64760;53.404;23.498;2023-05-19T02:55:30;100786.78;;;10.67;100.00
73594;BME280;64760;53.404;23.498;2023-05-19T02:57:56;100784.47;;;10.56;100.00
73594;BME280;64760;53.404;23.498;2023-05-19T03:00:22;100783.63;;;10.56;100.00
73594;BME280;64760;53.404;23.498;2023-05-19T03:02:48;100789.00;;;10.56;100.00
73594;BME280;64760;53.404;23.498;2023-05-19T03:05:15;100784.13;;;10.59;100.00
73594;BME280;64760;53.404;23.498;2023-05-19T03:07:41;100786.78;;;10.67;100.00
73594;BME280;64760;53.404;23.498;2023-05-19T03:10:07;100797.22;;;10.62;100.00
73594;BME280;64760;53.404;23.498;2023-05-19T03:12:33;100792.69;;;10.63;100.00
73594;BME280;64760;53.404;23.498;2023-05-19T03:15:00;100797.19;;;10.70;100.00
73594;BME280;64760;53.404;23.498;2023-05-19T03:17:26;100790.63;;;10.81;100.00
73594;BME280;64760;53.404;23.498;2023-05-19T03:19:59;100790.47;;;10.82;100.00
73594;BME280;64760;53.404;23.498;2023-05-19T03:22:25;100797.50;;;10.75;100.00
73594;BME280;64760;53.404;23.498;2023-05-19T03:24:52;100802.56;;;10.62;100.00
73594;BME280;64760;53.404;23.498;2023-05-19T03:27:19;100805.38;;;10.77;100.00
73594;BME280;64760;53.404;23.498;2023-05-19T03:29:46;100798.81;;;10.88;100.00
73594;BME280;64760;53.404;23.498;2023-05-19T03:32:13;100794.78;;;10.83;100.00
73594;BME280;64760;53.404;23.498;2023-05-19T03:34:40;100798.66;;;10.81;100.00
73594;BME280;64760;53.404;23.498;2023-05-19T03:37:06;100795.47;;;10.86;100.00
73594;BME280;64760;53.404;23.498;2023-05-19T03:39:34;100799.50;;;10.81;100.00
73594;BME280;64760;53.404;23.498;2023-05-19T03:42:00;100799.97;;;10.93;100.00
73594;BME280;64760;53.404;23.498;2023-05-19T03:44:27;100793.75;;;10.93;100.00
73594;BME280;64760;53.404;23.498;2023-05-19T03:46:53;100806.84;;;10.88;100.00
73594;BME280;64760;53.404;23.498;2023-05-19T03:49:38;100806.34;;;10.92;100.00
73594;BME280;64760;53.404;23.498;2023-05-19T03:52:04;100800.97;;;10.92;100.00
73594;BME280;64760;53.404;23.498;2023-05-19T03:54:48;100807.03;;;10.94;100.00
73594;BME280;64760;53.404;23.498;2023-05-19T03:57:16;100804.31;;;11.02;100.00
73594;BME280;64760;53.404;23.498;2023-05-19T03:59:42;100807.31;;;10.99;99.85
73594;BME280;64760;53.404;23.498;2023-05-19T04:02:08;100804.13;;;11.04;99.93
73594;BME280;64760;53.404;23.498;2023-05-19T04:04:35;100808.44;;;11.13;100.00
73594;BME280;64760;53.404;23.498;2023-05-19T04:07:03;100810.53;;;10.95;100.00
73594;BME280;64760;53.404;23.498;2023-05-19T04:09:29;100805.31;;;11.01;100.00
73594;BME280;64760;53.404;23.498;2023-05-19T04:12:00;100810.19;;;10.98;100.00
73594;BME280;64760;53.404;23.498;2023-05-19T04:14:29;100805.97;;;10.95;100.00
73594;BME280;64760;53.404;23.498;2023-05-19T04:16:56;100814.00;;;11.03;100.00
73594;BME280;64760;53.404;23.498;2023-05-19T04:19:22;100808.31;;;11.06;100.00
73594;BME280;64760;53.404;23.498;2023-05-19T04:21:48;100804.75;;;11.14;100.00
73594;BME280;64760;53.404;23.498;2023-05-19T04:24:14;100797.22;;;11.09;100.00
73594;BME280;64760;53.404;23.498;2023-05-19T04:26:41;100807.47;;;11.06;100.00
73594;BME280;64760;53.404;23.498;2023-05-19T04:29:11;100800.91;;;11.08;100.00
73594;BME280;64760;53.404;23.498;2023-05-19T04:31:39;100804.59;;;11.07;100.00
73594;BME280;64760;53.404;23.498;2023-05-19T04:34:06;100806.78;;;11.12;100.00
73594;BME280;64760;53.404;23.498;2023-05-19T04:36:35;100802.06;;;11.22;100.00
73594;BME280;64760;53.404;23.498;2023-05-19T04:39:02;100809.31;;;11.05;100.00
73594;BME280;64760;53.404;23.498;2023-05-19T04:41:32;100806.81;;;11.04;100.00
73594;BME280;64760;53.404;23.498;2023-05-19T04:44:00;100801.47;;;10.96;100.00
73594;BME280;64760;53.404;23.498;2023-05-19T04:46:27;100804.81;;;10.98;100.00
73594;BME280;64760;53.404;23.498;2023-05-19T04:48:55;100806.34;;;10.84;100.00
73594;BME280;64760;53.404;23.498;2023-05-19T04:51:22;100812.38;;;10.94;100.00
73594;BME280;64760;53.404;23.498;2023-05-19T04:53:54;100805.00;;;10.88;100.00
73594;BME280;64760;53.404;23.498;2023-05-19T04:56:20;100800.81;;;10.94;100.00
73594;BME280;64760;53.404;23.498;2023-05-19T04:58:48;100808.03;;;10.93;100.00
73594;BME280;64760;53.404;23.498;2023-05-19T05:01:14;100794.78;;;10.92;100.00
73594;BME280;64760;53.404;23.498;2023-05-19T05:03:42;100805.81;;;10.97;100.00
73594;BME280;64760;53.404;23.498;2023-05-19T05:06:09;100802.44;;;11.03;100.00
73594;BME280;64760;53.404;23.498;2023-05-19T05:08:37;100801.75;;;11.09;100.00
73594;BME280;64760;53.404;23.498;2023-05-19T05:11:05;100807.66;;;10.96;100.00
73594;BME280;64760;53.404;23.498;2023-05-19T05:13:32;100796.25;;;11.02;100.00
73594;BME280;64760;53.404;23.498;2023-05-19T05:15:59;100800.47;;;10.97;100.00
73594;BME280;64760;53.404;23.498;2023-05-19T05:18:26;100803.75;;;11.07;100.00
73594;BME280;64760;53.404;23.498;2023-05-19T05:20:52;100804.94;;;11.12;100.00
73594;BME280;64760;53.404;23.498;2023-05-19T05:23:19;100809.06;;;11.23;99.35
73594;BME280;64760;53.404;23.498;2023-05-19T05:25:47;100804.16;;;11.35;98.77
73594;BME280;64760;53.404;23.498;2023-05-19T05:28:15;100805.38;;;11.24;98.54
73594;BME280;64760;53.404;23.498;2023-05-19T05:30:42;100812.28;;;11.18;98.20
73594;BME280;64760;53.404;23.498;2023-05-19T05:33:10;100805.88;;;11.27;97.33
73594;BME280;64760;53.404;23.498;2023-05-19T05:35:37;100798.13;;;11.32;97.79
73594;BME280;64760;53.404;23.498;2023-05-19T05:38:05;100798.63;;;11.36;98.53
73594;BME280;64760;53.404;23.498;2023-05-19T05:40:32;100802.06;;;11.22;97.62
73594;BME280;64760;53.404;23.498;2023-05-19T05:42:58;100791.31;;;11.22;98.47
73594;BME280;64760;53.404;23.498;2023-05-19T05:45:27;100790.00;;;11.18;98.34
73594;BME280;64760;53.404;23.498;2023-05-19T05:47:54;100797.59;;;11.37;97.21
73594;BME280;64760;53.404;23.498;2023-05-19T05:50:20;100806.66;;;11.36;96.13
73594;BME280;64760;53.404;23.498;2023-05-19T05:52:47;100803.25;;;11.50;96.38
73594;BME280;64760;53.404;23.498;2023-05-19T05:55:15;100805.63;;;11.45;95.77
73594;BME280;64760;53.404;23.498;2023-05-19T05:57:47;100809.25;;;11.52;95.28
73594;BME280;64760;53.404;23.498;2023-05-19T06:00:15;100812.06;;;11.59;95.05
73594;BME280;64760;53.404;23.498;2023-05-19T06:02:44;100814.97;;;11.57;94.77
73594;BME280;64760;53.404;23.498;2023-05-19T06:05:11;100812.22;;;11.73;94.57
73594;BME280;64760;53.404;23.498;2023-05-19T06:07:40;100822.28;;;11.71;94.63
73594;BME280;64760;53.404;23.498;2023-05-19T06:10:08;100807.69;;;11.66;94.00
73594;BME280;64760;53.404;23.498;2023-05-19T06:12:35;100810.00;;;11.77;93.83
73594;BME280;64760;53.404;23.498;2023-05-19T06:15:06;100807.13;;;11.78;94.44
73594;BME280;64760;53.404;23.498;2023-05-19T06:17:39;100806.25;;;11.86;94.08
73594;BME280;64760;53.404;23.498;2023-05-19T06:20:05;100810.09;;;11.84;93.34
73594;BME280;64760;53.404;23.498;2023-05-19T06:22:33;100809.34;;;11.98;93.26
73594;BME280;64760;53.404;23.498;2023-05-19T06:25:01;100823.25;;;12.01;92.42
73594;BME280;64760;53.404;23.498;2023-05-19T06:27:28;100819.00;;;12.07;91.34
73594;BME280;64760;53.404;23.498;2023-05-19T06:29:54;100829.19;;;12.34;90.20
73594;BME280;64760;53.404;23.498;2023-05-19T06:32:20;100830.56;;;12.30;89.48
73594;BME280;64760;53.404;23.498;2023-05-19T06:34:46;100833.84;;;12.26;89.72
73594;BME280;64760;53.404;23.498;2023-05-19T06:37:20;100825.34;;;12.14;88.88
73594;BME280;64760;53.404;23.498;2023-05-19T06:39:49;100821.63;;;12.15;88.56
73594;BME280;64760;53.404;23.498;2023-05-19T06:42:20;100816.72;;;12.18;89.07
73594;BME280;64760;53.404;23.498;2023-05-19T06:45:08;100805.28;;;12.39;87.53
73594;BME280;64760;53.404;23.498;2023-05-19T06:47:34;100808.53;;;12.35;87.54
73594;BME280;64760;53.404;23.498;2023-05-19T06:50:01;100812.75;;;12.52;87.18
73594;BME280;64760;53.404;23.498;2023-05-19T06:52:31;100811.03;;;12.36;86.47
73594;BME280;64760;53.404;23.498;2023-05-19T06:54:58;100811.19;;;12.57;85.59
73594;BME280;64760;53.404;23.498;2023-05-19T06:57:25;100815.84;;;12.78;84.12
73594;BME280;64760;53.404;23.498;2023-05-19T06:59:51;100819.31;;;13.01;82.45
73594;BME280;64760;53.404;23.498;2023-05-19T07:02:17;100815.00;;;13.07;82.11
73594;BME280;64760;53.404;23.498;2023-05-19T07:04:43;100817.94;;;13.20;81.22
73594;BME280;64760;53.404;23.498;2023-05-19T07:07:13;100815.09;;;13.43;81.37
73594;BME280;64760;53.404;23.498;2023-05-19T07:09:39;100814.31;;;13.63;78.79
73594;BME280;64760;53.404;23.498;2023-05-19T07:12:06;100809.72;;;13.57;78.53
73594;BME280;64760;53.404;23.498;2023-05-19T07:14:32;100802.84;;;13.76;77.76
73594;BME280;64760;53.404;23.498;2023-05-19T07:16:59;100795.66;;;13.83;76.79
73594;BME280;64760;53.404;23.498;2023-05-19T07:19:25;100800.50;;;13.88;76.73
73594;BME280;64760;53.404;23.498;2023-05-19T07:21:53;100796.38;;;13.92;75.53
73594;BME280;64760;53.404;23.498;2023-05-19T07:24:20;100788.47;;;13.90;76.11
73594;BME280;64760;53.404;23.498;2023-05-19T07:26:47;100793.69;;;13.92;75.40
73594;BME280;64760;53.404;23.498;2023-05-19T07:29:13;100796.00;;;13.95;75.01
73594;BME280;64760;53.404;23.498;2023-05-19T07:31:39;100799.06;;;13.71;74.87
73594;BME280;64760;53.404;23.498;2023-05-19T07:34:05;100782.25;;;13.90;73.60
73594;BME280;64760;53.404;23.498;2023-05-19T07:36:32;100782.31;;;14.18;72.90
73594;BME280;64760;53.404;23.498;2023-05-19T07:38:59;100789.38;;;14.19;72.54
73594;BME280;64760;53.404;23.498;2023-05-19T07:41:25;100796.59;;;14.61;71.89
73594;BME280;64760;53.404;23.498;2023-05-19T07:43:51;100796.06;;;14.72;71.01
73594;BME280;64760;53.404;23.498;2023-05-19T07:46:18;100795.41;;;14.70;70.29
73594;BME280;64760;53.404;23.498;2023-05-19T07:48:43;100788.41;;;14.82;68.94
73594;BME280;64760;53.404;23.498;2023-05-19T07:51:11;100793.44;;;14.85;68.32
73594;BME280;64760;53.404;23.498;2023-05-19T07:53:37;100788.53;;;15.01;68.05
73594;BME280;64760;53.404;23.498;2023-05-19T07:56:04;100791.88;;;15.03;67.93
73594;BME280;64760;53.404;23.498;2023-05-19T07:58:30;100796.03;;;15.06;66.55
73594;BME280;64760;53.404;23.498;2023-05-19T08:00:57;100808.66;;;14.92;66.88
73594;BME280;64760;53.404;23.498;2023-05-19T08:03:24;100802.78;;;15.17;66.78
73594;BME280;64760;53.404;23.498;2023-05-19T08:05:51;100798.06;;;14.97;67.08
73594;BME280;64760;53.404;23.498;2023-05-19T08:08:17;100788.69;;;14.93;66.27
73594;BME280;64760;53.404;23.498;2023-05-19T08:10:45;100807.34;;;15.16;66.36
73594;BME280;64760;53.404;23.498;2023-05-19T08:13:11;100811.34;;;15.33;65.34
73594;BME280;64760;53.404;23.498;2023-05-19T08:15:38;100804.19;;;15.54;64.27
73594;BME280;64760;53.404;23.498;2023-05-19T08:18:04;100809.63;;;15.60;63.00
73594;BME280;64760;53.404;23.498;2023-05-19T08:20:30;100808.19;;;15.71;62.87
73594;BME280;64760;53.404;23.498;2023-05-19T08:22:56;100808.25;;;15.90;62.52
73594;BME280;64760;53.404;23.498;2023-05-19T08:25:23;100810.97;;;16.10;62.55
73594;BME280;64760;53.404;23.498;2023-05-19T08:27:49;100812.22;;;15.88;59.84
73594;BME280;64760;53.404;23.498;2023-05-19T08:30:16;100814.69;;;15.83;60.42
73594;BME280;64760;53.404;23.498;2023-05-19T08:32:42;100807.59;;;15.82;60.77
73594;BME280;64760;53.404;23.498;2023-05-19T08:35:09;100817.56;;;15.68;61.15
73594;BME280;64760;53.404;23.498;2023-05-19T08:37:35;100823.63;;;15.36;60.93
73594;BME280;64760;53.404;23.498;2023-05-19T08:40:04;100825.63;;;15.55;61.36
73594;BME280;64760;53.404;23.498;2023-05-19T08:42:31;100830.00;;;15.69;59.93
73594;BME280;64760;53.404;23.498;2023-05-19T08:45:00;100823.56;;;15.64;59.38
73594;BME280;64760;53.404;23.498;2023-05-19T08:47:27;100818.78;;;15.59;59.68
73594;BME280;64760;53.404;23.498;2023-05-19T08:50:02;100814.88;;;15.75;58.96
73594;BME280;64760;53.404;23.498;2023-05-19T08:52:54;100820.50;;;15.80;57.23
73594;BME280;64760;53.404;23.498;2023-05-19T08:55:43;100803.69;;;15.91;55.98
73594;BME280;64760;53.404;23.498;2023-05-19T08:58:11;100820.94;;;15.90;55.48
73594;BME280;64760;53.404;23.498;2023-05-19T09:00:38;100811.41;;;16.07;55.10
73594;BME280;64760;53.404;23.498;2023-05-19T09:03:05;100808.50;;;16.28;54.07
73594;BME280;64760;53.404;23.498;2023-05-19T09:05:31;100806.44;;;16.70;55.29
73594;BME280;64760;53.404;23.498;2023-05-19T09:07:57;100809.16;;;16.70;52.79
73594;BME280;64760;53.404;23.498;2023-05-19T09:10:27;100807.25;;;16.77;52.56
73594;BME280;64760;53.404;23.498;2023-05-19T09:12:53;100804.34;;;16.92;51.79
73594;BME280;64760;53.404;23.498;2023-05-19T09:15:25;100811.25;;;16.68;52.15
73594;BME280;64760;53.404;23.498;2023-05-19T09:18:06;100800.00;;;16.58;51.75
73594;BME280;64760;53.404;23.498;2023-05-19T09:20:36;100812.69;;;16.51;51.81
73594;BME280;64760;53.404;23.498;2023-05-19T09:23:03;100808.94;;;16.65;52.71
73594;BME280;64760;53.404;23.498;2023-05-19T09:25:30;100811.44;;;16.73;51.66
73594;BME280;64760;53.404;23.498;2023-05-19T09:27:56;100810.59;;;16.72;52.25
73594;BME280;64760;53.404;23.498;2023-05-19T09:30:23;100812.66;;;16.77;51.82
73594;BME280;64760;53.404;23.498;2023-05-19T09:32:50;100815.19;;;16.72;51.61
73594;BME280;64760;53.404;23.498;2023-05-19T09:35:16;100808.09;;;16.44;51.65
73594;BME280;64760;53.404;23.498;2023-05-19T09:37:45;100811.41;;;16.33;52.77
73594;BME280;64760;53.404;23.498;2023-05-19T09:40:14;100807.25;;;16.31;52.51
73594;BME280;64760;53.404;23.498;2023-05-19T09:42:41;100808.28;;;16.17;52.47
73594;BME280;64760;53.404;23.498;2023-05-19T09:45:09;100805.59;;;16.23;52.19
73594;BME280;64760;53.404;23.498;2023-05-19T09:47:39;100813.09;;;16.48;51.81
73594;BME280;64760;53.404;23.498;2023-05-19T09:50:08;100815.81;;;16.61;52.08
73594;BME280;64760;53.404;23.498;2023-05-19T09:52:35;100817.66;;;16.93;50.84
73594;BME280;64760;53.404;23.498;2023-05-19T09:55:02;100819.28;;;17.14;51.04
73594;BME280;64760;53.404;23.498;2023-05-19T09:57:34;100816.94;;;17.30;50.49
73594;BME280;64760;53.404;23.498;2023-05-19T10:00:08;100821.88;;;17.40;49.41
73594;BME280;64760;53.404;23.498;2023-05-19T10:02:46;100800.88;;;17.29;49.75
73594;BME280;64760;53.404;23.498;2023-05-19T10:05:18;100805.00;;;17.38;48.82
73594;BME280;64760;53.404;23.498;2023-05-19T10:07:46;100815.41;;;17.41;48.72
73594;BME280;64760;53.404;23.498;2023-05-19T10:10:15;100816.94;;;17.30;49.07
73594;BME280;64760;53.404;23.498;2023-05-19T10:12:41;100805.97;;;17.57;48.94
73594;BME280;64760;53.404;23.498;2023-05-19T10:15:09;100797.75;;;17.76;47.43
73594;BME280;64760;53.404;23.498;2023-05-19T10:17:40;100797.38;;;17.73;47.68
73594;BME280;64760;53.404;23.498;2023-05-19T10:20:11;100800.16;;;17.53;47.99
73594;BME280;64760;53.404;23.498;2023-05-19T10:22:39;100812.31;;;17.37;47.63
73594;BME280;64760;53.404;23.498;2023-05-19T10:25:08;100805.66;;;17.33;47.46
73594;BME280;64760;53.404;23.498;2023-05-19T10:27:36;100799.19;;;17.34;47.46
73594;BME280;64760;53.404;23.498;2023-05-19T10:30:10;100791.19;;;17.53;48.12
73594;BME280;64760;53.404;23.498;2023-05-19T10:32:41;100798.28;;;17.54;47.62
73594;BME280;64760;53.404;23.498;2023-05-19T10:45:48;100786.53;;;17.73;46.31
73594;BME280;64760;53.404;23.498;2023-05-19T10:48:18;100782.25;;;17.90;46.39
73594;BME280;64760;53.404;23.498;2023-05-19T10:50:45;100787.88;;;18.20;45.92
73594;BME280;64760;53.404;23.498;2023-05-19T10:53:16;100787.50;;;17.85;45.60
73594;BME280;64760;53.404;23.498;2023-05-19T10:55:54;100788.84;;;18.01;45.66
73594;BME280;64760;53.404;23.498;2023-05-19T10:58:36;100792.78;;;18.05;44.83
73594;BME280;64760;53.404;23.498;2023-05-19T11:01:17;100789.44;;;18.34;44.85
73594;BME280;64760;53.404;23.498;2023-05-19T11:03:51;100793.81;;;18.10;45.11
73594;BME280;64760;53.404;23.498;2023-05-19T11:06:32;100796.22;;;17.94;44.71
73594;BME280;64760;53.404;23.498;2023-05-19T11:11:47;100792.13;;;17.78;46.35
73594;BME280;64760;53.404;23.498;2023-05-19T11:14:15;100796.25;;;18.18;46.05
73594;BME280;64760;53.404;23.498;2023-05-19T11:16:48;100800.31;;;18.34;45.42
73594;BME280;64760;53.404;23.498;2023-05-19T11:19:18;100791.81;;;18.49;45.33
73594;BME280;64760;53.404;23.498;2023-05-19T11:21:48;100782.47;;;18.69;45.69
73594;BME280;64760;53.404;23.498;2023-05-19T11:24:43;100788.34;;;18.42;44.99
73594;BME280;64760;53.404;23.498;2023-05-19T11:29:47;100776.56;;;18.72;44.51
73594;BME280;64760;53.404;23.498;2023-05-19T11:32:15;100774.47;;;19.11;44.93
73594;BME280;64760;53.404;23.498;2023-05-19T11:34:43;100776.22;;;19.42;43.66
73594;BME280;64760;53.404;23.498;2023-05-19T11:37:10;100793.41;;;19.72;43.26
73594;BME280;64760;53.404;23.498;2023-05-19T11:39:36;100778.13;;;20.01;43.13
73594;BME280;64760;53.404;23.498;2023-05-19T11:42:04;100783.03;;;20.22;42.56
73594;BME280;64760;53.404;23.498;2023-05-19T11:44:30;100783.47;;;20.49;42.14
73594;BME280;64760;53.404;23.498;2023-05-19T11:46:58;100790.31;;;20.63;41.56
73594;BME280;64760;53.404;23.498;2023-05-19T11:49:24;100767.34;;;19.94;42.07
73594;BME280;64760;53.404;23.498;2023-05-19T11:51:52;100776.28;;;19.83;43.18
73594;BME280;64760;53.404;23.498;2023-05-19T11:54:18;100784.75;;;19.93;43.02
73594;BME280;64760;53.404;23.498;2023-05-19T11:56:46;100781.84;;;19.77;43.57
73594;BME280;64760;53.404;23.498;2023-05-19T11:59:12;100785.22;;;19.90;43.46
73594;BME280;64760;53.404;23.498;2023-05-19T12:01:39;100786.66;;;20.04;43.11
73594;BME280;64760;53.404;23.498;2023-05-19T12:04:08;100787.00;;;19.96;43.11
73594;BME280;64760;53.404;23.498;2023-05-19T12:06:36;100790.19;;;19.93;43.53
73594;BME280;64760;53.404;23.498;2023-05-19T12:09:04;100790.75;;;19.54;44.32
73594;BME280;64760;53.404;23.498;2023-05-19T12:11:30;100798.38;;;19.45;45.27
73594;BME280;64760;53.404;23.498;2023-05-19T12:14:00;100789.13;;;19.28;46.03
73594;BME280;64760;53.404;23.498;2023-05-19T12:16:36;100788.16;;;18.86;45.71
73594;BME280;64760;53.404;23.498;2023-05-19T12:19:05;100788.72;;;18.45;46.64
73594;BME280;64760;53.404;23.498;2023-05-19T12:21:31;100796.97;;;18.32;47.35
73594;BME280;64760;53.404;23.498;2023-05-19T12:23:58;100794.56;;;18.17;47.73
73594;BME280;64760;53.404;23.498;2023-05-19T12:26:26;100795.25;;;18.38;48.30
73594;BME280;64760;53.404;23.498;2023-05-19T12:28:53;100793.44;;;18.56;47.19
73594;BME280;64760;53.404;23.498;2023-05-19T12:31:20;100794.63;;;18.36;46.65
73594;BME280;64760;53.404;23.498;2023-05-19T12:33:48;100788.69;;;18.52;46.10
73594;BME280;64760;53.404;23.498;2023-05-19T12:36:17;100799.13;;;18.55;46.12
73594;BME280;64760;53.404;23.498;2023-05-19T12:38:44;100787.28;;;18.67;45.96
73594;BME280;64760;53.404;23.498;2023-05-19T12:41:11;100788.34;;;18.66;46.18
73594;BME280;64760;53.404;23.498;2023-05-19T12:43:37;100781.81;;;18.92;45.87
73594;BME280;64760;53.404;23.498;2023-05-19T12:46:11;100786.56;;;18.97;45.47
73594;BME280;64760;53.404;23.498;2023-05-19T12:48:44;100781.34;;;18.95;45.12
73594;BME280;64760;53.404;23.498;2023-05-19T12:51:20;100787.88;;;18.94;45.26
73594;BME280;64760;53.404;23.498;2023-05-19T12:53:49;100787.97;;;18.63;44.60
73594;BME280;64760;53.404;23.498;2023-05-19T12:56:15;100787.28;;;18.43;45.77
73594;BME280;64760;53.404;23.498;2023-05-19T12:58:42;100789.63;;;18.08;46.13
73594;BME280;64760;53.404;23.498;2023-05-19T13:01:16;100776.63;;;17.85;47.01
73594;BME280;64760;53.404;23.498;2023-05-19T13:03:43;100779.91;;;17.56;47.25
73594;BME280;64760;53.404;23.498;2023-05-19T13:06:10;100776.16;;;17.63;48.14
73594;BME280;64760;53.404;23.498;2023-05-19T13:08:37;100787.31;;;17.80;48.00
73594;BME280;64760;53.404;23.498;2023-05-19T13:11:05;100779.56;;;17.83;47.75
73594;BME280;64760;53.404;23.498;2023-05-19T13:13:31;100781.47;;;17.83;47.16
73594;BME280;64760;53.404;23.498;2023-05-19T13:15:58;100771.44;;;18.15;46.18
73594;BME280;64760;53.404;23.498;2023-05-19T13:18:24;100771.09;;;18.29;45.57